createdAt,value
2023-02-11T00:00:27.748Z,38.97
2023-02-11T00:02:55.518Z,38.96
2023-02-11T00:05:23.231Z,38.83
2023-02-11T00:07:51.017Z,38.92
2023-02-11T00:10:18.703Z,39.02
2023-02-11T00:12:46.400Z,39.01
2023-02-11T00:15:14.088Z,38.80
2023-02-11T00:17:43.155Z,38.91
2023-02-11T00:20:11.335Z,38.91
2023-02-11T00:22:39.110Z,38.98
2023-02-11T00:25:07.281Z,38.72
2023-02-11T00:27:37.784Z,38.73
2023-02-11T00:30:05.727Z,38.80
2023-02-11T00:32:33.788Z,38.56
2023-02-11T00:35:02.914Z,38.81
2023-02-11T00:37:30.581Z,38.76
2023-02-11T00:39:58.292Z,38.90
2023-02-11T00:42:25.948Z,38.76
2023-02-11T00:44:53.685Z,38.71
2023-02-11T00:47:21.405Z,38.83
2023-02-11T00:49:49.185Z,38.83
2023-02-11T00:52:18.264Z,38.75
2023-02-11T00:54:46.131Z,38.70
2023-02-11T00:57:13.824Z,38.68
2023-02-11T00:59:41.652Z,38.52
2023-02-11T01:02:09.509Z,38.64
2023-02-11T01:04:37.273Z,38.62
2023-02-11T01:07:09.583Z,38.62
2023-02-11T01:09:40.188Z,38.47
2023-02-11T01:12:08.101Z,38.49
2023-02-11T01:14:35.869Z,38.47
2023-02-11T01:17:05.418Z,38.49
2023-02-11T01:19:33.211Z,38.35
2023-02-11T01:22:00.935Z,38.31
2023-02-11T01:24:28.841Z,38.29
2023-02-11T01:26:58.045Z,38.35
2023-02-11T01:29:26.282Z,38.38
2023-02-11T01:31:54.096Z,38.44
2023-02-11T01:34:21.886Z,38.43
2023-02-11T01:36:49.568Z,38.29
2023-02-11T01:39:17.330Z,38.29
2023-02-11T01:41:45.025Z,38.18
2023-02-11T01:44:28.079Z,38.24
2023-02-11T01:46:55.916Z,38.25
2023-02-11T01:49:28.064Z,38.30
2023-02-11T01:51:57.606Z,38.28
2023-02-11T01:54:44.857Z,38.24
2023-02-11T01:57:26.133Z,38.23
2023-02-11T01:59:58.766Z,38.07
2023-02-11T02:02:28.680Z,38.29
2023-02-11T02:04:59.835Z,38.21
2023-02-11T02:07:31.660Z,38.20
2023-02-11T02:10:01.708Z,38.17
2023-02-11T02:12:29.463Z,38.17
2023-02-11T02:17:55.276Z,38.06
2023-02-11T02:20:38.758Z,38.12
2023-02-11T02:23:14.998Z,38.08
2023-02-11T02:25:56.335Z,38.05
2023-02-11T02:28:36.731Z,37.95
2023-02-11T02:31:27.735Z,38.02
2023-02-11T02:33:58.989Z,38.15
2023-02-11T02:36:33.102Z,37.94
2023-02-11T02:39:02.856Z,37.99
2023-02-11T02:41:31.979Z,37.74
2023-02-11T02:43:59.745Z,38.90
2023-02-11T02:46:31.093Z,40.12
2023-02-11T02:49:00.593Z,40.18
2023-02-11T02:51:43.718Z,39.71
2023-02-11T02:54:28.073Z,40.08
2023-02-11T02:56:57.258Z,39.71
2023-02-11T02:59:32.417Z,39.78
2023-02-11T03:02:07.693Z,39.66
2023-02-11T03:04:43.593Z,39.81
2023-02-11T03:07:14.024Z,39.81
2023-02-11T03:09:44.301Z,39.59
2023-02-11T03:12:13.657Z,39.60
2023-02-11T03:14:44.810Z,39.55
2023-02-11T03:17:12.766Z,39.42
2023-02-11T03:19:43.454Z,39.51
2023-02-11T03:22:13.188Z,39.46
2023-02-11T03:24:42.382Z,39.45
2023-02-11T03:27:12.064Z,39.35
2023-02-11T03:29:42.246Z,39.32
2023-02-11T03:32:16.293Z,39.33
2023-02-11T03:34:48.796Z,39.25
2023-02-11T03:37:19.169Z,39.12
2023-02-11T03:39:50.005Z,39.07
2023-02-11T03:42:17.902Z,39.15
2023-02-11T03:44:48.932Z,39.08
2023-02-11T03:47:18.537Z,39.11
2023-02-11T03:49:49.024Z,39.17
2023-02-11T03:52:19.006Z,39.08
2023-02-11T03:54:47.414Z,39.05
2023-02-11T03:57:17.816Z,39.02
2023-02-11T03:59:52.266Z,39.01
2023-02-11T04:02:20.354Z,39.01
2023-02-11T04:04:49.512Z,39.07
2023-02-11T04:07:17.482Z,39.06
2023-02-11T04:09:45.229Z,39.08
2023-02-11T04:12:12.944Z,38.91
2023-02-11T04:14:40.760Z,38.96
2023-02-11T04:17:08.564Z,38.88
2023-02-11T04:19:39.505Z,38.96
2023-02-11T04:22:08.855Z,38.91
2023-02-11T04:24:36.639Z,38.84
2023-02-11T04:27:04.459Z,38.82
2023-02-11T04:29:32.160Z,38.83
2023-02-11T04:32:00.055Z,38.86
2023-02-11T04:34:28.162Z,39.02
2023-02-11T04:36:55.923Z,38.81
2023-02-11T04:39:24.994Z,38.81
2023-02-11T04:41:55.726Z,38.77
2023-02-11T04:44:23.486Z,38.73
2023-02-11T04:46:51.207Z,38.74
2023-02-11T04:49:19.160Z,38.70
2023-02-11T04:51:49.266Z,38.66
2023-02-11T04:54:17.761Z,38.73
2023-02-11T04:56:47.014Z,38.77
2023-02-11T04:59:14.788Z,38.75
2023-02-11T05:01:42.543Z,38.74
2023-02-11T05:04:10.341Z,38.69
2023-02-11T05:06:39.379Z,38.53
2023-02-11T05:09:07.321Z,38.52
2023-02-11T05:11:36.650Z,38.62
2023-02-11T05:14:05.941Z,38.58
2023-02-11T05:16:34.058Z,38.58
2023-02-11T05:19:01.948Z,38.69
2023-02-11T05:21:29.946Z,38.57
2023-02-11T05:23:57.747Z,38.56
2023-02-11T05:26:28.253Z,38.62
2023-02-11T05:28:55.990Z,38.58
2023-02-11T05:31:27.745Z,38.57
2023-02-11T05:33:55.485Z,38.64
2023-02-11T05:36:23.255Z,38.66
2023-02-11T05:38:51.741Z,38.54
2023-02-11T05:41:19.540Z,38.54
2023-02-11T05:43:48.876Z,38.67
2023-02-11T05:46:16.661Z,38.60
2023-02-11T05:48:45.750Z,38.48
2023-02-11T05:51:13.469Z,38.63
2023-02-11T05:53:41.144Z,38.55
2023-02-11T05:56:10.295Z,38.56
2023-02-11T05:58:38.727Z,38.54
2023-02-11T06:01:06.440Z,38.55
2023-02-11T06:03:34.183Z,38.44
2023-02-11T06:06:03.318Z,38.61
2023-02-11T06:08:31.003Z,38.50
2023-02-11T06:10:58.716Z,38.49
2023-02-11T06:13:26.484Z,38.57
2023-02-11T06:15:57.536Z,38.60
2023-02-11T06:18:25.390Z,38.49
2023-02-11T06:20:53.130Z,38.46
2023-02-11T06:23:22.706Z,38.45
2023-02-11T06:25:50.904Z,38.57
2023-02-11T06:28:18.848Z,38.61
2023-02-11T06:30:46.762Z,38.53
2023-02-11T06:33:14.461Z,38.44
2023-02-11T06:35:42.211Z,38.45
2023-02-11T06:38:09.929Z,38.46
2023-02-11T06:40:42.039Z,38.49
2023-02-11T06:43:09.863Z,38.62
2023-02-11T06:45:37.579Z,38.51
2023-02-11T06:48:05.425Z,38.54
2023-02-11T06:50:33.168Z,38.61
2023-02-11T06:53:00.928Z,38.54
2023-02-11T06:55:28.736Z,38.63
2023-02-11T06:57:57.793Z,38.60
2023-02-11T07:00:26.576Z,38.63
2023-02-11T07:02:54.320Z,38.48
2023-02-11T07:05:22.261Z,38.60
2023-02-11T07:07:49.895Z,38.59
2023-02-11T07:10:20.537Z,38.61
2023-02-11T07:12:48.294Z,38.56
2023-02-11T07:15:17.414Z,38.46
2023-02-11T07:17:45.158Z,38.56
2023-02-11T07:20:14.717Z,38.49
2023-02-11T07:22:42.523Z,38.56
2023-02-11T07:25:10.260Z,38.71
2023-02-11T07:27:38.042Z,38.57
2023-02-11T07:30:07.373Z,38.62
2023-02-11T07:32:36.669Z,38.61
2023-02-11T07:35:05.096Z,38.64
2023-02-11T07:37:34.416Z,38.56
2023-02-11T07:40:02.111Z,38.60
2023-02-11T07:42:29.781Z,38.57
2023-02-11T07:44:57.525Z,38.57
2023-02-11T07:47:25.235Z,38.55
2023-02-11T07:49:56.544Z,38.56
2023-02-11T07:52:24.551Z,38.59
2023-02-11T07:54:52.269Z,38.55
2023-02-11T07:57:19.988Z,38.69
2023-02-11T07:59:47.770Z,38.64
2023-02-11T08:02:15.561Z,38.71
2023-02-11T08:04:43.319Z,38.61
2023-02-11T08:07:15.365Z,38.58
2023-02-11T08:09:43.179Z,38.64
2023-02-11T08:12:10.876Z,38.70
2023-02-11T08:14:38.780Z,38.73
2023-02-11T08:17:06.629Z,38.60
2023-02-11T08:19:35.340Z,38.76
2023-02-11T08:22:03.293Z,38.71
2023-02-11T08:24:32.462Z,38.72
2023-02-11T08:27:00.166Z,38.71
2023-02-11T08:29:27.914Z,38.84
2023-02-11T08:31:55.633Z,38.85
2023-02-11T08:34:23.434Z,39.04
2023-02-11T08:36:51.258Z,39.17
2023-02-11T08:39:20.926Z,39.39
2023-02-11T08:41:50.825Z,39.58
2023-02-11T08:44:18.927Z,39.58
2023-02-11T08:46:46.721Z,39.56
2023-02-11T08:49:15.030Z,39.55
2023-02-11T08:51:43.064Z,39.60
2023-02-11T08:54:11.106Z,39.57
2023-02-11T08:56:39.955Z,39.64
2023-02-11T08:59:09.559Z,39.67
2023-02-11T09:01:37.413Z,39.74
2023-02-11T09:04:05.490Z,39.73
2023-02-11T09:06:33.168Z,39.81
2023-02-11T09:09:00.946Z,39.89
2023-02-11T09:11:29.768Z,39.89
2023-02-11T09:14:00.142Z,39.89
2023-02-11T09:16:30.295Z,39.94
2023-02-11T09:18:58.512Z,39.93
2023-02-11T09:21:26.650Z,39.94
2023-02-11T09:23:57.256Z,40.02
2023-02-11T09:26:25.864Z,40.06
2023-02-11T09:28:53.578Z,40.14
2023-02-11T09:31:22.710Z,40.13
2023-02-11T09:33:52.904Z,40.13
2023-02-11T09:36:21.679Z,40.15
2023-02-11T09:38:52.757Z,40.21
2023-02-11T09:41:38.918Z,40.00
2023-02-11T09:44:08.887Z,40.24
2023-02-11T09:46:37.963Z,40.27
2023-02-11T09:49:07.551Z,40.40
2023-02-11T09:51:39.815Z,40.29
2023-02-11T09:54:13.094Z,40.36
2023-02-11T09:56:40.974Z,40.25
2023-02-11T09:59:11.952Z,40.32
2023-02-11T10:01:41.197Z,40.31
2023-02-11T10:04:15.413Z,40.30
2023-02-11T10:06:44.518Z,40.30
2023-02-11T10:09:25.395Z,40.11
2023-02-11T10:11:56.735Z,40.40
2023-02-11T10:14:32.650Z,40.29
2023-02-11T10:17:05.800Z,40.37
2023-02-11T10:19:47.661Z,40.39
2023-02-11T10:22:19.883Z,40.34
2023-02-11T10:24:51.567Z,40.37
2023-02-11T10:27:25.841Z,40.64
2023-02-11T10:29:57.032Z,40.26
2023-02-11T10:32:32.985Z,40.81
2023-02-11T10:35:04.790Z,41.25
2023-02-11T10:37:32.637Z,41.53
2023-02-11T10:40:00.373Z,41.48
2023-02-11T10:42:28.388Z,41.61
2023-02-11T10:44:59.805Z,41.67
2023-02-11T10:47:29.540Z,41.40
2023-02-11T10:50:03.290Z,41.50
2023-02-11T10:52:32.451Z,41.68
2023-02-11T10:55:02.297Z,42.27
2023-02-11T10:57:32.126Z,41.96
2023-02-11T11:00:05.795Z,41.99
2023-02-11T11:02:35.635Z,41.97
2023-02-11T11:05:05.588Z,42.80
2023-02-11T11:07:35.518Z,42.79
2023-02-11T11:10:04.972Z,42.68
2023-02-11T11:12:35.116Z,42.68
2023-02-11T11:15:16.603Z,42.79
2023-02-11T11:17:44.384Z,42.63
2023-02-11T11:20:15.970Z,42.55
2023-02-11T11:22:45.548Z,42.53
2023-02-11T11:25:27.243Z,42.52
2023-02-11T11:27:56.933Z,42.65
2023-02-11T11:30:26.828Z,42.48
2023-02-11T11:32:55.016Z,42.42
2023-02-11T11:35:24.938Z,42.55
2023-02-11T11:38:01.299Z,42.70
2023-02-11T11:40:30.111Z,42.78
2023-02-11T11:43:06.294Z,42.59
2023-02-11T11:45:34.177Z,42.40
2023-02-11T11:48:05.225Z,42.30
2023-02-11T11:50:36.138Z,42.19
2023-02-11T11:53:08.613Z,42.09
2023-02-11T11:55:39.322Z,42.05
2023-02-11T11:58:11.775Z,42.00
2023-02-11T12:00:45.116Z,42.01
2023-02-11T12:03:27.365Z,41.89
2023-02-11T12:06:05.380Z,41.70
2023-02-11T12:08:39.114Z,41.74
2023-02-11T12:11:13.132Z,41.75
2023-02-11T12:13:47.157Z,41.77
2023-02-11T12:16:20.937Z,41.71
2023-02-11T12:19:15.582Z,41.62
2023-02-11T12:21:46.627Z,41.58
2023-02-11T12:24:22.781Z,41.60
2023-02-11T12:26:54.391Z,41.49
2023-02-11T12:29:28.127Z,41.44
2023-02-11T12:32:02.675Z,41.50
2023-02-11T12:34:39.010Z,41.44
2023-02-11T12:37:11.677Z,41.36
2023-02-11T12:39:45.422Z,41.40
2023-02-11T12:42:46.730Z,41.27
2023-02-11T12:45:23.039Z,41.25
2023-02-11T12:47:58.547Z,41.38
2023-02-11T12:50:31.159Z,41.26
2023-02-11T12:53:08.414Z,41.20
2023-02-11T12:55:39.847Z,41.14
2023-02-11T12:58:13.693Z,41.07
2023-02-11T13:00:43.847Z,41.08
2023-02-11T13:03:13.661Z,41.19
2023-02-11T13:05:44.364Z,41.07
2023-02-11T13:08:14.072Z,41.14
2023-02-11T13:10:44.694Z,41.05
2023-02-11T13:13:17.997Z,41.14
2023-02-11T13:15:47.858Z,41.12
2023-02-11T13:18:20.850Z,40.40
2023-02-11T13:20:52.777Z,41.32
2023-02-11T13:23:25.784Z,41.51
2023-02-11T13:26:00.639Z,41.89
2023-02-11T13:28:36.504Z,41.81
2023-02-11T13:31:07.769Z,41.64
2023-02-11T13:33:36.903Z,41.80
2023-02-11T13:36:24.153Z,41.71
2023-02-11T13:38:53.508Z,41.76
2023-02-11T13:41:25.637Z,41.96
2023-02-11T13:44:01.516Z,41.65
2023-02-11T13:46:30.540Z,41.87
2023-02-11T13:48:59.466Z,41.85
2023-02-11T13:51:38.082Z,41.78
2023-02-11T13:54:06.960Z,41.76
2023-02-11T13:56:37.244Z,41.74
2023-02-11T13:59:30.604Z,41.62
2023-02-11T14:02:23.250Z,41.62
2023-02-11T14:05:29.288Z,41.74
2023-02-11T14:08:30.684Z,41.74
2023-02-11T14:10:59.729Z,41.56
2023-02-11T14:13:29.699Z,41.60
2023-02-11T14:16:10.452Z,41.71
2023-02-11T14:18:39.158Z,41.67
2023-02-11T14:21:13.230Z,41.62
2023-02-11T14:23:41.189Z,41.70
2023-02-11T14:26:22.737Z,41.74
2023-02-11T14:28:53.641Z,41.67
2023-02-11T14:31:25.140Z,41.67
2023-02-11T14:33:57.955Z,41.72
2023-02-11T14:36:46.709Z,41.67
2023-02-11T14:39:20.400Z,41.65
2023-02-11T14:41:52.112Z,41.44
2023-02-11T14:44:23.218Z,41.78
2023-02-11T14:46:52.564Z,42.09
2023-02-11T14:49:25.839Z,41.91
2023-02-11T14:51:55.344Z,41.90
2023-02-11T14:54:25.421Z,41.86
2023-02-11T14:57:06.597Z,41.71
2023-02-11T14:59:36.069Z,41.72
2023-02-11T15:02:03.839Z,41.79
2023-02-11T15:04:32.813Z,41.79
2023-02-11T15:07:04.933Z,41.54
2023-02-11T15:09:38.974Z,42.70
2023-02-11T15:12:13.656Z,43.24
2023-02-11T15:14:47.050Z,43.30
2023-02-11T15:17:17.527Z,43.33
2023-02-11T15:19:47.353Z,42.86
2023-02-11T15:22:21.326Z,43.43
2023-02-11T15:24:58.952Z,43.54
2023-02-11T15:27:26.730Z,43.41
2023-02-11T15:29:55.812Z,43.02
2023-02-11T15:32:24.874Z,42.83
2023-02-11T15:34:53.595Z,42.62
2023-02-11T15:37:22.279Z,42.50
2023-02-11T15:39:50.493Z,42.35
2023-02-11T15:42:19.362Z,42.30
2023-02-11T15:44:50.519Z,42.15
2023-02-11T15:47:23.597Z,42.12
2023-02-11T15:49:51.527Z,42.06
2023-02-11T15:52:25.288Z,41.97
2023-02-11T15:54:54.124Z,42.01
2023-02-11T15:57:23.045Z,41.98
2023-02-11T15:59:51.780Z,42.04
2023-02-11T16:02:20.797Z,42.00
2023-02-11T16:04:55.040Z,41.94
2023-02-11T16:07:40.523Z,42.07
2023-02-11T16:10:17.517Z,42.05
2023-02-11T16:12:52.137Z,41.95
2023-02-11T16:15:38.385Z,42.20
2023-02-11T16:18:14.071Z,42.26
2023-02-11T16:20:47.506Z,42.45
2023-02-11T16:23:19.120Z,42.44
2023-02-11T16:25:46.861Z,42.39
2023-02-11T16:28:16.329Z,42.45
2023-02-11T16:30:44.330Z,42.63
2023-02-11T16:33:12.697Z,42.71
2023-02-11T16:35:40.484Z,42.78
2023-02-11T16:38:09.656Z,42.94
2023-02-11T16:40:37.340Z,43.18
2023-02-11T16:43:05.105Z,43.00
2023-02-11T16:45:32.828Z,43.55
2023-02-11T16:48:02.157Z,43.12
2023-02-11T16:50:30.035Z,43.85
2023-02-11T16:52:57.777Z,45.17
2023-02-11T16:55:26.835Z,44.47
2023-02-11T16:57:54.652Z,45.28
2023-02-11T17:00:22.943Z,45.44
2023-02-11T17:02:50.741Z,45.15
2023-02-11T17:05:20.021Z,45.11
2023-02-11T17:07:47.778Z,45.20
2023-02-11T17:10:15.847Z,45.41
2023-02-11T17:12:44.929Z,45.22
2023-02-11T17:15:12.669Z,45.24
2023-02-11T17:17:40.471Z,45.13
2023-02-11T17:20:09.441Z,45.02
2023-02-11T17:22:37.155Z,45.20
2023-02-11T17:25:04.920Z,44.99
2023-02-11T17:27:32.707Z,45.01
2023-02-11T17:30:01.881Z,44.98
2023-02-11T17:32:29.595Z,45.01
2023-02-11T17:34:57.361Z,44.89
2023-02-11T17:37:26.629Z,45.08
2023-02-11T17:39:54.390Z,45.13
2023-02-11T17:42:25.184Z,45.05
2023-02-11T17:44:52.952Z,45.13
2023-02-11T17:47:22.068Z,44.99
2023-02-11T17:49:49.818Z,44.90
2023-02-11T17:52:18.194Z,44.61
2023-02-11T17:54:46.100Z,44.85
2023-02-11T17:57:14.270Z,44.63
2023-02-11T17:59:41.997Z,44.58
2023-02-11T18:02:11.646Z,44.76
2023-02-11T18:04:40.956Z,44.62
2023-02-11T18:07:10.009Z,44.58
2023-02-11T18:09:41.539Z,44.62
2023-02-11T18:12:12.348Z,44.74
2023-02-11T18:14:40.930Z,44.54
2023-02-11T18:17:08.712Z,44.55
2023-02-11T18:19:37.661Z,44.68
2023-02-11T18:22:06.846Z,44.56
2023-02-11T18:24:34.571Z,44.74
2023-02-11T18:27:02.288Z,44.67
2023-02-11T18:29:30.074Z,44.84
2023-02-11T18:31:58.323Z,44.59
2023-02-11T18:34:26.179Z,44.73
2023-02-11T18:36:54.221Z,44.58
2023-02-11T18:39:24.366Z,44.77
2023-02-11T18:41:54.616Z,44.54
2023-02-11T18:44:24.663Z,44.45
2023-02-11T18:46:52.765Z,44.79
2023-02-11T18:49:20.870Z,44.53
2023-02-11T18:51:48.666Z,44.63
2023-02-11T18:54:16.466Z,44.82
2023-02-11T18:56:45.635Z,44.82
2023-02-11T18:59:13.588Z,44.69
2023-02-11T19:01:43.396Z,44.67
2023-02-11T19:04:12.534Z,44.74
2023-02-11T19:06:42.762Z,44.82
2023-02-11T19:09:11.536Z,44.67
2023-02-11T19:11:50.268Z,44.69
2023-02-11T19:14:21.104Z,44.81
2023-02-11T19:16:50.598Z,44.74
2023-02-11T19:19:19.069Z,44.95
2023-02-11T19:21:47.486Z,44.96
2023-02-11T19:24:18.865Z,44.67
2023-02-11T19:26:46.979Z,44.89
2023-02-11T19:29:15.180Z,44.74
2023-02-11T19:31:44.781Z,44.69
2023-02-11T19:34:13.393Z,44.48
2023-02-11T19:36:41.557Z,45.04
2023-02-11T19:39:09.629Z,44.82
2023-02-11T19:41:37.891Z,44.79
2023-02-11T19:44:06.018Z,45.03
2023-02-11T19:46:38.681Z,44.89
2023-02-11T19:49:08.481Z,44.99
2023-02-11T19:51:39.160Z,44.93
2023-02-11T19:54:08.439Z,44.82
2023-02-11T19:56:37.858Z,44.86
2023-02-11T19:59:08.859Z,45.15
2023-02-11T20:01:37.500Z,44.95
2023-02-11T20:04:05.311Z,45.00
2023-02-11T20:06:34.843Z,44.74
2023-02-11T20:09:03.246Z,44.83
2023-02-11T20:11:31.753Z,44.96
2023-02-11T20:13:59.598Z,44.67
2023-02-11T20:16:46.282Z,44.85
2023-02-11T20:19:18.153Z,44.54
2023-02-11T20:21:48.219Z,44.43
2023-02-11T20:24:16.253Z,44.55
2023-02-11T20:26:45.215Z,44.48
2023-02-11T20:29:13.023Z,44.40
2023-02-11T20:31:40.852Z,44.36
2023-02-11T20:34:08.672Z,44.38
2023-02-11T20:36:38.136Z,44.46
2023-02-11T20:39:07.657Z,44.44
2023-02-11T20:41:36.401Z,44.41
2023-02-11T20:44:05.073Z,44.18
2023-02-11T20:46:33.942Z,44.25
2023-02-11T20:49:02.161Z,44.30
2023-02-11T20:51:30.925Z,44.15
2023-02-11T20:53:58.679Z,44.15
2023-02-11T20:56:30.843Z,44.07
2023-02-11T20:58:59.280Z,44.24
2023-02-11T21:01:28.370Z,44.06
2023-02-11T21:03:57.206Z,44.05
2023-02-11T21:06:25.843Z,44.05
2023-02-11T21:08:54.281Z,43.99
2023-02-11T21:11:22.337Z,44.12
2023-02-11T21:13:52.062Z,43.93
2023-02-11T21:16:21.334Z,44.16
2023-02-11T21:18:49.621Z,44.09
2023-02-11T21:21:17.436Z,44.05
2023-02-11T21:23:45.501Z,43.89
2023-02-11T21:26:13.571Z,44.21
2023-02-11T21:28:41.431Z,43.97
2023-02-11T21:31:10.999Z,45.19
2023-02-11T21:33:39.163Z,44.53
2023-02-11T21:36:10.949Z,44.63
2023-02-11T21:38:38.677Z,44.65
2023-02-11T21:41:06.672Z,44.49
2023-02-11T21:43:34.707Z,44.51
2023-02-11T21:46:02.444Z,44.34
2023-02-11T21:48:31.505Z,44.39
2023-02-11T21:50:59.232Z,44.52
2023-02-11T21:53:26.948Z,44.40
2023-02-11T21:56:02.610Z,44.53
2023-02-11T21:58:30.322Z,44.38
2023-02-11T22:00:58.087Z,44.45
2023-02-11T22:03:25.840Z,44.54
2023-02-11T22:05:55.211Z,44.34
2023-02-11T22:08:23.122Z,44.47
2023-02-11T22:10:50.864Z,44.32
2023-02-11T22:13:18.611Z,44.41
2023-02-11T22:15:46.293Z,44.31
2023-02-11T22:18:14.015Z,44.26
2023-02-11T22:20:41.707Z,44.42
2023-02-11T22:23:10.843Z,44.43
2023-02-11T22:25:38.580Z,44.20
2023-02-11T22:28:06.367Z,44.29
2023-02-11T22:30:34.203Z,44.14
2023-02-11T22:33:05.694Z,44.24
2023-02-11T22:35:34.512Z,44.23
2023-02-11T22:38:02.228Z,44.43
2023-02-11T22:40:31.366Z,44.32
2023-02-11T22:42:59.017Z,44.26
2023-02-11T22:45:26.759Z,44.39
2023-02-11T22:47:54.490Z,44.27
2023-02-11T22:50:22.179Z,44.19
2023-02-11T22:52:49.882Z,44.20
2023-02-11T22:55:17.750Z,44.17
2023-02-11T22:57:46.812Z,44.21
2023-02-11T23:00:15.178Z,44.04
2023-02-11T23:02:42.981Z,44.18
2023-02-11T23:05:10.744Z,44.14
2023-02-11T23:07:38.513Z,44.14
2023-02-11T23:10:06.739Z,44.37
2023-02-11T23:12:34.445Z,44.21
2023-02-11T23:15:05.148Z,43.94
2023-02-11T23:17:33.045Z,43.96
2023-02-11T23:20:00.725Z,43.82
2023-02-11T23:22:28.482Z,43.96
2023-02-11T23:24:56.245Z,43.78
2023-02-11T23:27:24.050Z,43.89
2023-02-11T23:29:51.923Z,43.78
2023-02-11T23:32:21.088Z,43.61
2023-02-11T23:34:48.894Z,43.75
2023-02-11T23:37:16.605Z,43.51
2023-02-11T23:39:44.334Z,43.49
2023-02-11T23:42:12.101Z,43.68
2023-02-11T23:44:39.878Z,43.58
2023-02-11T23:47:07.629Z,43.51
2023-02-11T23:49:36.753Z,43.27
2023-02-11T23:52:04.647Z,43.35
2023-02-11T23:54:32.326Z,43.31
2023-02-11T23:57:00.054Z,43.31
2023-02-11T23:59:27.824Z,43.07
